Time;durP1;ratioP1;P1;durP2;ratioP2;P2;SDS_P1;SDS_P2;PMS_P1;PMS_P2;Temp;Humidity;BMP_temperature;BMP_pressure;BME280_temperature;BME280_humidity;BME280_pressure;Samples;Min_cycle;Max_cycle;Signal;HPM_P1;HPM_P2
2024/02/04 00:00:19;;;;;;;4.60;2.78;;;;;;;9.91;51.28;99950.78;4954463;29;20030;-27
2024/02/04 00:02:44;;;;;;;3.10;2.15;;;;;;;9.79;51.53;99955.81;4954822;29;20038;-28
2024/02/04 00:05:09;;;;;;;3.95;2.70;;;;;;;9.80;51.14;99957.44;4954565;29;20026;-27
2024/02/04 00:07:35;;;;;;;4.07;2.40;;;;;;;10.06;51.26;99958.66;4954266;29;20023;-27
2024/02/04 00:10:00;;;;;;;4.72;2.67;;;;;;;9.78;50.87;99964.78;4954320;29;20118;-27
2024/02/04 00:12:26;;;;;;;3.88;2.50;;;;;;;9.92;51.04;99958.56;4954438;29;20066;-26
2024/02/04 00:14:52;;;;;;;2.85;2.08;;;;;;;9.91;51.08;99961.41;4954052;29;20073;-27
2024/02/04 00:17:17;;;;;;;4.63;2.78;;;;;;;10.06;50.22;99961.31;4953966;29;20162;-27
2024/02/04 00:19:43;;;;;;;5.88;3.08;;;;;;;10.18;50.56;99968.56;4953623;29;20396;-26
2024/02/04 00:22:08;;;;;;;6.82;2.45;;;;;;;10.21;50.23;99975.31;4953666;28;20471;-27
2024/02/04 00:24:34;;;;;;;3.55;2.60;;;;;;;9.86;51.03;99971.78;4953963;29;20098;-26
2024/02/04 00:26:59;;;;;;;4.40;2.45;;;;;;;9.89;50.89;99979.41;4953735;29;20023;-26
2024/02/04 00:29:25;;;;;;;3.80;2.47;;;;;;;9.70;51.34;99962.28;4953632;29;20704;-26
2024/02/04 00:31:50;;;;;;;4.28;2.45;;;;;;;9.67;51.59;99966.16;4953919;29;20066;-26
2024/02/04 00:34:16;;;;;;;5.50;2.90;;;;;;;9.81;52.01;99956.44;4953399;29;20141;-26
2024/02/04 00:36:41;;;;;;;6.45;3.03;;;;;;;9.72;51.84;99962.91;4953568;29;20041;-26
2024/02/04 00:39:07;;;;;;;5.25;3.10;;;;;;;9.82;51.70;99968.69;4953590;29;20033;-26
2024/02/04 00:41:35;;;;;;;5.50;2.72;;;;;;;9.75;51.81;99966.00;4953424;29;20444;-26
2024/02/04 00:44:01;;;;;;;4.10;2.50;;;;;;;9.96;51.49;99959.81;4953841;29;20023;-26
2024/02/04 00:46:27;;;;;;;4.07;2.65;;;;;;;9.66;52.79;99964.50;4953447;29;20042;-27
2024/02/04 00:48:53;;;;;;;3.65;2.20;;;;;;;9.67;52.05;99960.84;4953448;29;20126;-26
2024/02/04 00:51:19;;;;;;;4.22;2.55;;;;;;;9.62;52.29;99957.13;4953294;29;20102;-29
2024/02/04 00:53:45;;;;;;;3.47;2.45;;;;;;;9.78;51.71;99962.13;4953513;29;20531;-26
2024/02/04 00:56:11;;;;;;;3.35;2.45;;;;;;;10.00;51.16;99962.91;4953514;29;20118;-26
2024/02/04 00:58:37;;;;;;;3.53;2.40;;;;;;;9.70;51.57;99967.59;4953753;29;20062;-26
2024/02/04 01:01:02;;;;;;;5.00;2.63;;;;;;;9.52;52.02;99965.38;4953562;29;20038;-26
2024/02/04 01:03:29;;;;;;;3.58;2.38;;;;;;;9.78;52.07;99970.91;4953611;29;20027;-26
2024/02/04 01:05:55;;;;;;;4.80;2.63;;;;;;;9.84;51.55;99979.16;4953785;29;20039;-26
2024/02/04 01:08:21;;;;;;;3.58;2.50;;;;;;;9.82;51.12;99971.34;4936354;29;20143;-26
2024/02/04 01:10:46;;;;;;;3.95;2.30;;;;;;;9.74;51.53;99976.81;4953555;29;20109;-27
2024/02/04 01:13:12;;;;;;;5.00;2.50;;;;;;;9.50;52.47;99978.88;4953591;29;20166;-27
2024/02/04 01:15:37;;;;;;;4.63;2.60;;;;;;;9.32;52.86;99971.34;4953414;29;20038;-27
2024/02/04 01:18:03;;;;;;;6.18;2.60;;;;;;;9.57;52.86;99969.09;4953586;29;20027;-39
2024/02/04 01:20:28;;;;;;;4.45;2.65;;;;;;;9.58;52.20;99968.09;4953116;29;20031;-37
2024/02/04 01:22:53;;;;;;;3.72;2.80;;;;;;;9.55;51.97;99978.28;4953326;29;20030;-41
2024/02/04 01:25:19;;;;;;;3.42;2.58;;;;;;;9.44;53.01;99966.34;4952816;29;20128;-40
2024/02/04 01:27:44;;;;;;;3.17;2.55;;;;;;;9.35;52.53;99955.03;4953462;29;20058;-25
2024/02/04 01:30:10;;;;;;;5.53;2.65;;;;;;;9.38;52.79;99970.56;4953478;29;20064;-26
2024/02/04 01:32:35;;;;;;;5.97;2.90;;;;;;;9.38;53.00;99964.44;4952944;29;20031;-27
2024/02/04 01:35:00;;;;;;;3.67;2.63;;;;;;;9.46;52.50;99969.66;4952585;29;20492;-25
2024/02/04 01:37:26;;;;;;;4.80;2.65;;;;;;;9.44;52.70;99973.50;4953585;29;20472;-26
2024/02/04 01:39:51;;;;;;;3.90;2.67;;;;;;;9.41;52.67;99965.91;4954223;29;20035;-27
2024/02/04 01:42:17;;;;;;;4.40;2.70;;;;;;;9.44;53.10;99962.88;4953832;29;20027;-26
2024/02/04 01:44:43;;;;;;;4.38;2.53;;;;;;;9.47;53.36;99959.84;4953161;29;20461;-27
2024/02/04 01:47:09;;;;;;;4.07;2.63;;;;;;;9.56;53.24;99958.69;4936021;29;20062;-27
2024/02/04 01:49:34;;;;;;;5.57;2.70;;;;;;;9.73;52.69;99959.25;4953712;29;20039;-27
2024/02/04 01:52:01;;;;;;;4.07;2.58;;;;;;;9.53;53.28;99964.38;4953377;29;20106;-27
2024/02/04 01:54:27;;;;;;;3.70;2.60;;;;;;;9.48;53.25;99966.78;4953339;29;20031;-28
2024/02/04 01:56:54;;;;;;;4.55;2.45;;;;;;;9.70;52.83;99960.44;4953436;29;20031;-27
2024/02/04 01:59:20;;;;;;;3.63;2.70;;;;;;;9.81;52.83;99961.75;4953390;29;20385;-27
2024/02/04 02:01:47;;;;;;;4.90;2.60;;;;;;;9.89;52.62;99958.13;4953343;29;20046;-27
2024/02/04 02:04:13;;;;;;;4.75;2.33;;;;;;;9.65;53.65;99954.06;4953452;29;20051;-35
2024/02/04 02:06:41;;;;;;;5.60;2.60;;;;;;;9.71;53.78;99956.78;4936094;29;20031;-39
2024/02/04 02:09:10;;;;;;;4.43;2.45;;;;;;;9.54;53.98;99953.56;4953088;29;20090;-39
2024/02/04 02:11:46;;;;;;;4.68;2.75;;;;;;;9.59;53.84;99967.13;4952920;29;20145;-40
2024/02/04 02:14:16;;;;;;;6.10;2.85;;;;;;;9.71;53.93;99959.44;4952855;29;20086;-39
2024/02/04 02:16:45;;;;;;;5.43;2.80;;;;;;;9.56;54.55;99954.19;4952846;29;20051;-39
2024/02/04 02:19:45;;;;;;;5.43;2.95;;;;;;;9.78;54.38;99941.69;4952638;29;20062;-38
2024/02/04 02:22:23;;;;;;;4.85;2.70;;;;;;;9.54;54.42;99952.75;4952570;29;20039;-38
2024/02/04 02:24:51;;;;;;;4.18;2.72;;;;;;;9.56;54.74;99950.72;4952847;29;20035;-38
2024/02/04 02:27:16;;;;;;;4.97;2.92;;;;;;;9.43;55.19;99956.75;4952519;29;20223;-35
2024/02/04 02:29:42;;;;;;;4.22;2.78;;;;;;;9.36;55.39;99954.00;4952589;29;20143;-36
2024/02/04 02:32:07;;;;;;;4.90;2.88;;;;;;;9.58;54.90;99941.53;4935279;29;20109;-40
2024/02/04 02:34:33;;;;;;;5.53;2.80;;;;;;;9.40;55.25;99954.44;4952720;29;20055;-27
2024/02/04 02:37:27;;;;;;;4.63;2.75;;;;;;;9.34;56.05;99941.94;4952570;29;20460;-26
2024/02/04 02:40:05;;;;;;;3.83;2.38;;;;;;;9.11;56.66;99944.78;4952733;29;20471;-26
2024/02/04 02:42:32;;;;;;;6.22;2.90;;;;;;;9.34;56.24;99944.59;4952838;29;20058;-26
2024/02/04 02:44:59;;;;;;;4.35;2.67;;;;;;;9.41;55.86;99945.47;4953496;28;20034;-25
2024/02/04 02:47:26;;;;;;;4.93;2.63;;;;;;;9.65;55.16;99946.88;4955982;29;20034;-26
2024/02/04 02:49:55;;;;;;;4.10;2.45;;;;;;;9.49;55.87;99945.34;4956065;29;20154;-26
2024/02/04 02:52:21;;;;;;;5.78;2.85;;;;;;;9.17;56.11;99934.22;4956190;29;20027;-26
2024/02/04 02:54:47;;;;;;;3.42;2.45;;;;;;;9.46;55.77;99940.44;4955916;29;20074;-25
2024/02/04 02:57:12;;;;;;;4.38;2.60;;;;;;;9.55;55.18;99936.59;4955385;29;20058;-26
2024/02/04 02:59:37;;;;;;;4.22;2.80;;;;;;;9.79;54.18;99931.91;4956042;29;20038;-25
2024/02/04 03:02:03;;;;;;;3.38;2.70;;;;;;;9.65;54.50;99943.44;4955630;29;20607;-26
2024/02/04 03:04:28;;;;;;;4.07;2.67;;;;;;;9.59;54.90;99945.00;4955956;29;20420;-25
2024/02/04 03:06:53;;;;;;;3.90;2.80;;;;;;;9.45;55.57;99933.47;4955829;29;20527;-24
2024/02/04 03:09:19;;;;;;;4.90;3.17;;;;;;;9.84;54.09;99929.44;4955696;29;20030;-26
2024/02/04 03:11:45;;;;;;;3.70;2.50;;;;;;;9.70;54.23;99925.06;4956356;29;20511;-26
2024/02/04 03:14:11;;;;;;;4.35;2.75;;;;;;;9.87;54.14;99929.06;4939189;29;20027;-27
2024/02/04 03:16:36;;;;;;;4.65;2.70;;;;;;;9.87;53.80;99914.97;4938744;29;20460;-27
2024/02/04 03:19:05;;;;;;;4.95;2.65;;;;;;;9.84;53.88;99913.50;4955609;29;20063;-27
2024/02/04 03:21:30;;;;;;;3.65;2.90;;;;;;;9.78;53.45;99917.75;4955626;29;20031;-27
2024/02/04 03:23:56;;;;;;;4.18;2.65;;;;;;;9.92;52.96;99924.00;4955612;29;20038;-27
2024/02/04 03:26:21;;;;;;;3.83;2.60;;;;;;;9.73;53.38;99914.88;4955336;29;20114;-27
2024/02/04 03:28:46;;;;;;;4.15;2.80;;;;;;;9.67;53.78;99920.97;4955483;29;20035;-26
2024/02/04 03:31:12;;;;;;;3.25;2.42;;;;;;;9.50;53.82;99922.25;4955450;29;20031;-26
2024/02/04 03:33:37;;;;;;;3.85;2.60;;;;;;;9.83;53.69;99913.72;4955027;29;20114;-27
2024/02/04 03:36:02;;;;;;;4.43;2.92;;;;;;;9.78;53.00;99925.72;4955299;29;20548;-28
2024/02/04 03:38:28;;;;;;;4.40;2.63;;;;;;;9.90;53.20;99920.72;4954717;29;20055;-27
2024/02/04 03:40:54;;;;;;;3.83;2.55;;;;;;;9.66;53.20;99914.00;4954946;29;20475;-27
2024/02/04 03:43:19;;;;;;;5.32;3.00;;;;;;;10.06;52.63;99913.44;4954792;29;20030;-26
2024/02/04 03:45:45;;;;;;;3.95;2.80;;;;;;;9.81;53.42;99905.94;4954989;29;20480;-27
2024/02/04 03:48:10;;;;;;;4.82;3.00;;;;;;;9.60;53.48;99925.41;4954699;29;20023;-26
2024/02/04 03:50:36;;;;;;;4.10;2.75;;;;;;;9.69;53.55;99915.44;4937514;29;20480;-26
2024/02/04 03:53:01;;;;;;;4.68;2.78;;;;;;;9.61;52.65;99926.22;4935571;29;20074;-26
2024/02/04 03:55:27;;;;;;;5.05;3.00;;;;;;;9.51;53.25;99918.59;4935393;29;20031;-37
2024/02/04 03:57:54;;;;;;;3.60;2.65;;;;;;;9.58;53.16;99924.78;4935266;29;20031;-39
2024/02/04 04:00:20;;;;;;;3.63;2.67;;;;;;;9.54;52.38;99927.00;4935619;29;20457;-38
2024/02/04 04:02:45;;;;;;;4.50;2.97;;;;;;;9.62;52.72;99915.41;4935524;29;20023;-38
2024/02/04 04:05:12;;;;;;;4.00;2.78;;;;;;;9.89;51.13;99915.59;4935689;29;20027;-38
2024/02/04 04:07:39;;;;;;;3.78;2.63;;;;;;;9.70;51.46;99911.78;4936110;29;20095;-25
2024/02/04 04:10:05;;;;;;;4.22;2.80;;;;;;;9.47;52.39;99918.16;4935360;29;20528;-26
2024/02/04 04:12:30;;;;;;;4.95;2.60;;;;;;;9.60;53.38;99896.19;4935851;29;20024;-26
2024/02/04 04:14:56;;;;;;;3.97;2.78;;;;;;;9.65;53.38;99890.28;4935576;29;20515;-38
2024/02/04 04:17:21;;;;;;;4.20;3.00;;;;;;;9.65;53.48;99892.94;4935620;29;20461;-39
2024/02/04 04:19:46;;;;;;;5.40;3.20;;;;;;;9.76;53.52;99895.06;4935195;29;20031;-38
2024/02/04 04:22:11;;;;;;;5.45;2.90;;;;;;;9.39;55.40;99900.50;4935037;29;20027;-36
2024/02/04 04:24:38;;;;;;;3.78;2.60;;;;;;;9.23;55.94;99897.31;4935123;29;20023;-36
2024/02/04 04:27:04;;;;;;;3.80;2.70;;;;;;;9.34;55.63;99900.25;4935022;29;20507;-37
2024/02/04 04:29:29;;;;;;;3.42;2.60;;;;;;;9.29;55.90;99900.03;4935146;29;20055;-37
2024/02/04 04:31:54;;;;;;;4.65;2.80;;;;;;;9.35;56.46;99899.25;4934718;29;20055;-39
2024/02/04 04:34:20;;;;;;;3.65;2.90;;;;;;;9.30;56.23;99892.88;4917992;29;20051;-38
2024/02/04 04:36:46;;;;;;;5.20;2.72;;;;;;;9.48;56.20;99879.97;4934764;29;20110;-39
2024/02/04 04:39:11;;;;;;;4.55;2.78;;;;;;;9.65;55.75;99875.16;4935103;29;20059;-37
2024/02/04 04:41:36;;;;;;;3.67;2.80;;;;;;;9.72;55.59;99883.19;4934976;29;20098;-39
2024/02/04 04:44:02;;;;;;;3.97;2.92;;;;;;;9.65;56.31;99882.31;4934997;29;20028;-39
2024/02/04 04:46:28;;;;;;;3.83;2.80;;;;;;;9.85;56.09;99874.47;4937776;29;20023;-39
2024/02/04 04:48:57;;;;;;;4.82;2.95;;;;;;;10.12;54.81;99876.25;4953899;29;20049;-38
2024/02/04 04:51:23;;;;;;;4.05;2.88;;;;;;;10.23;54.25;99882.03;4953734;29;20023;-39
2024/02/04 04:53:48;;;;;;;4.35;2.83;;;;;;;10.14;55.38;99882.19;4953779;29;20058;-39
2024/02/04 04:56:13;;;;;;;3.70;2.70;;;;;;;9.71;55.89;99882.38;4953726;29;20487;-39
2024/02/04 04:58:39;;;;;;;6.55;2.95;;;;;;;9.89;56.26;99889.81;4953883;29;20403;-39
2024/02/04 05:01:05;;;;;;;4.47;2.90;;;;;;;9.83;56.17;99887.97;4954295;29;20039;-27
2024/02/04 05:03:30;;;;;;;4.90;2.75;;;;;;;10.02;55.47;99888.28;4954126;29;20027;-27
2024/02/04 05:05:55;;;;;;;3.75;2.70;;;;;;;10.12;55.40;99899.38;4954136;29;20461;-27
2024/02/04 05:08:21;;;;;;;5.50;2.90;;;;;;;9.93;55.60;99900.91;4954134;28;20653;-29
2024/02/04 05:10:46;;;;;;;4.60;2.60;;;;;;;10.00;54.73;99906.28;4953855;29;20118;-27
2024/02/04 05:13:11;;;;;;;4.38;2.88;;;;;;;10.08;54.96;99898.13;4953970;29;20058;-27
2024/02/04 05:15:37;;;;;;;4.80;2.90;;;;;;;10.08;55.69;99904.25;4953976;29;20070;-27
2024/02/04 05:18:04;;;;;;;4.38;3.00;;;;;;;9.90;56.27;99898.63;4953811;29;20451;-27
2024/02/04 05:20:29;;;;;;;5.32;2.83;;;;;;;9.90;55.75;99902.13;4953557;29;20027;-26
2024/02/04 05:22:55;;;;;;;14.00;2.80;;;;;;;9.56;56.54;99908.22;4953912;29;20086;-27
2024/02/04 05:25:20;;;;;;;4.53;2.50;;;;;;;9.52;56.47;99921.06;4953976;29;20502;-27
2024/02/04 05:27:46;;;;;;;3.45;2.33;;;;;;;9.53;56.64;99916.56;4953685;29;20621;-26
2024/02/04 05:30:12;;;;;;;3.70;2.72;;;;;;;9.58;56.98;99922.13;4953560;29;20027;-26
2024/02/04 05:32:37;;;;;;;3.08;2.47;;;;;;;9.79;55.98;99919.41;4953564;29;20065;-27
2024/02/04 05:35:03;;;;;;;3.95;2.40;;;;;;;9.91;55.66;99924.19;4953824;29;20126;-26
2024/02/04 05:37:28;;;;;;;3.10;2.53;;;;;;;9.76;55.89;99926.94;4953153;29;20046;-26
2024/02/04 05:39:55;;;;;;;3.83;2.78;;;;;;;9.75;56.48;99928.78;4953748;29;20574;-26
2024/02/04 05:42:20;;;;;;;4.07;2.75;;;;;;;9.84;56.15;99931.28;4953938;29;20035;-25
2024/02/04 05:44:45;;;;;;;4.22;2.88;;;;;;;9.85;56.35;99944.41;4953846;29;20035;-26
2024/02/04 05:47:11;;;;;;;5.45;3.00;;;;;;;9.78;55.59;99940.88;4952847;29;20027;-26
2024/02/04 05:49:36;;;;;;;6.15;2.58;;;;;;;9.89;55.48;99940.34;4953472;29;20031;-26
2024/02/04 05:52:02;;;;;;;4.50;2.60;;;;;;;10.02;55.78;99942.28;4953156;29;20106;-27
2024/02/04 05:54:27;;;;;;;4.35;2.90;;;;;;;9.96;55.42;99946.53;4953252;29;20424;-26
2024/02/04 05:56:52;;;;;;;4.65;2.80;;;;;;;9.63;56.50;99945.44;4953369;29;20033;-26
2024/02/04 05:59:18;;;;;;;4.63;2.90;;;;;;;9.71;56.67;99946.16;4953429;29;20196;-26
2024/02/04 06:01:44;;;;;;;6.53;2.97;;;;;;;9.98;56.02;99943.69;4953240;29;20425;-27
2024/02/04 06:04:10;;;;;;;4.20;3.08;;;;;;;9.77;56.32;99942.72;4953209;29;20070;-28
2024/02/04 06:06:35;;;;;;;5.68;2.80;;;;;;;10.17;55.39;99950.13;4953533;29;20047;-26
2024/02/04 06:09:01;;;;;;;4.30;2.83;;;;;;;9.94;55.89;99943.25;4953323;29;20035;-27
2024/02/04 06:11:26;;;;;;;7.00;3.03;;;;;;;9.97;56.87;99944.69;4953404;29;20074;-26
2024/02/04 06:13:51;;;;;;;6.35;3.47;;;;;;;9.94;56.12;99948.56;4953644;29;20031;-27
2024/02/04 06:16:17;;;;;;;4.72;3.10;;;;;;;10.02;55.25;99942.28;4936016;29;20154;-27
2024/02/04 06:18:42;;;;;;;6.28;3.33;;;;;;;10.01;55.90;99929.97;4953301;29;20069;-28
2024/02/04 06:21:08;;;;;;;5.25;3.20;;;;;;;10.04;55.43;99934.09;4955793;28;20443;-28
2024/02/04 06:23:33;;;;;;;4.97;3.45;;;;;;;10.00;55.52;99922.22;4957423;29;20027;-27
2024/02/04 06:26:00;;;;;;;4.80;3.30;;;;;;;9.95;55.82;99912.16;4957280;29;20121;-27
2024/02/04 06:28:25;;;;;;;5.80;3.42;;;;;;;9.97;55.07;99910.94;4956876;29;20030;-27
2024/02/04 06:30:51;;;;;;;5.53;3.42;;;;;;;10.07;55.05;99907.09;4957370;29;20106;-28
2024/02/04 06:33:16;;;;;;;4.75;3.30;;;;;;;10.49;53.86;99911.44;4956837;29;20055;-26
2024/02/04 06:35:42;;;;;;;6.00;3.10;;;;;;;10.17;54.75;99894.28;4956790;29;20039;-27
2024/02/04 06:38:08;;;;;;;6.13;3.17;;;;;;;10.37;54.87;99894.41;4956739;29;20353;-27
2024/02/04 06:40:33;;;;;;;4.68;2.88;;;;;;;10.49;54.01;99886.66;4956902;29;20035;-27
2024/02/04 06:42:59;;;;;;;6.22;3.20;;;;;;;10.63;54.25;99911.50;4956688;29;20027;-27
2024/02/04 06:45:24;;;;;;;4.00;2.67;;;;;;;10.34;54.33;99902.78;4956776;29;20026;-27
2024/02/04 06:47:50;;;;;;;5.60;2.60;;;;;;;10.39;55.33;99915.47;4956387;29;20023;-27
2024/02/04 06:50:15;;;;;;;6.03;2.90;;;;;;;10.67;54.60;99923.38;4956342;29;20135;-28
2024/02/04 06:52:42;;;;;;;6.03;2.55;;;;;;;10.43;55.13;99908.75;4956696;29;20055;-27
2024/02/04 06:55:08;;;;;;;4.03;2.80;;;;;;;10.34;55.72;99919.56;4956452;29;20055;-27
2024/02/04 06:57:34;;;;;;;4.47;2.78;;;;;;;10.34;56.24;99929.41;4955747;29;20062;-28
2024/02/04 06:59:59;;;;;;;3.35;2.70;;;;;;;10.56;56.33;99914.94;4956174;29;20031;-27
2024/02/04 07:02:24;;;;;;;4.63;2.58;;;;;;;10.82;56.45;99928.56;4956145;29;20035;-27
2024/02/04 07:04:50;;;;;;;3.80;2.50;;;;;;;10.59;57.19;99932.38;4956000;29;20432;-27
2024/02/04 07:07:15;;;;;;;3.72;2.58;;;;;;;10.83;56.75;99938.16;4955700;29;20015;-28
2024/02/04 07:09:40;;;;;;;5.10;2.70;;;;;;;10.76;56.28;99940.81;4952842;29;20023;-28
2024/02/04 07:12:06;;;;;;;5.38;2.70;;;;;;;10.86;57.08;99938.59;4941539;29;20104;-27
2024/02/04 07:14:31;;;;;;;5.22;2.90;;;;;;;11.00;56.13;99946.63;4936478;29;20473;-27
2024/02/04 07:16:57;;;;;;;3.60;2.50;;;;;;;11.10;55.61;99955.88;4936406;29;20099;-28
2024/02/04 07:19:22;;;;;;;4.43;2.53;;;;;;;11.05;55.64;99955.63;4936277;29;20477;-27
2024/02/04 07:21:47;;;;;;;5.45;3.70;;;;;;;11.43;55.22;99963.09;4949900;29;20090;-26
2024/02/04 07:24:13;;;;;;;4.95;3.00;;;;;;;11.34;55.63;99959.78;4953386;29;20103;-27
2024/02/04 07:26:38;;;;;;;6.50;2.88;;;;;;;11.35;55.73;99979.28;4953694;29;20035;-29
2024/02/04 07:29:04;;;;;;;5.68;3.03;;;;;;;11.70;54.01;99977.22;4952573;29;20023;-28
2024/02/04 07:31:30;;;;;;;4.88;3.00;;;;;;;11.62;53.69;99958.78;4952642;28;20023;-28
2024/02/04 07:33:55;;;;;;;4.75;3.00;;;;;;;11.45;54.65;99978.88;4953302;29;20066;-27
2024/02/04 07:36:20;;;;;;;5.43;2.78;;;;;;;11.57;54.30;99979.09;4953485;29;20054;-29
2024/02/04 07:38:46;;;;;;;4.35;2.78;;;;;;;11.28;54.63;99975.78;4953423;29;20401;-28
2024/02/04 07:41:14;;;;;;;3.80;2.72;;;;;;;11.51;54.41;99972.72;4953789;29;20055;-27
2024/02/04 07:43:39;;;;;;;6.95;3.30;;;;;;;11.73;53.70;99976.03;4952992;29;20035;-27
2024/02/04 07:46:05;;;;;;;6.10;3.10;;;;;;;11.77;54.10;99977.25;4950314;29;20047;-28
2024/02/04 07:48:30;;;;;;;5.18;2.90;;;;;;;12.46;53.94;99973.25;4952418;29;20567;-27
2024/02/04 07:50:55;;;;;;;3.88;2.70;;;;;;;12.88;53.23;99967.56;4950806;29;20098;-27
2024/02/04 07:53:23;;;;;;;3.60;2.72;;;;;;;12.77;51.85;99962.88;4952912;29;20043;-27
2024/02/04 07:55:49;;;;;;;4.28;2.75;;;;;;;13.08;53.29;99956.78;4953145;29;20121;-28
2024/02/04 07:58:15;;;;;;;3.95;2.90;;;;;;;13.36;50.53;99968.94;4953162;29;20035;-27
2024/02/04 08:00:40;;;;;;;4.55;3.15;;;;;;;13.59;49.76;99963.03;4953010;29;20034;-28
2024/02/04 08:03:06;;;;;;;4.47;2.92;;;;;;;13.28;50.33;99967.31;4952459;29;20027;-27
2024/02/04 08:05:31;;;;;;;4.85;3.17;;;;;;;13.35;50.66;99972.69;4952829;29;20543;-27
2024/02/04 08:07:56;;;;;;;7.38;3.30;;;;;;;13.61;49.73;99960.94;4952450;29;20463;-27
2024/02/04 08:10:22;;;;;;;4.50;3.00;;;;;;;13.61;49.93;99959.13;4952701;29;20043;-27
2024/02/04 08:12:50;;;;;;;6.13;3.10;;;;;;;13.60;49.37;99949.44;4952835;29;20031;-27
2024/02/04 08:15:16;;;;;;;4.78;3.00;;;;;;;14.03;48.37;99940.63;4952751;29;20067;-27
2024/02/04 08:17:41;;;;;;;4.65;3.33;;;;;;;14.35;47.92;99940.47;4952529;29;20085;-27
2024/02/04 08:20:07;;;;;;;5.28;3.20;;;;;;;14.25;48.10;99935.66;4952649;29;20459;-29
2024/02/04 08:22:33;;;;;;;6.07;3.50;;;;;;;14.49;47.31;99933.13;4952000;29;20043;-27
2024/02/04 08:24:58;;;;;;;5.35;3.25;;;;;;;14.59;47.52;99938.78;4952328;29;20082;-27
2024/02/04 08:27:24;;;;;;;6.40;3.40;;;;;;;14.66;46.55;99936.03;4951824;29;20436;-29
2024/02/04 08:29:49;;;;;;;7.45;3.45;;;;;;;14.78;46.81;99939.59;4952204;29;20050;-27
2024/02/04 08:32:14;;;;;;;5.28;3.30;;;;;;;14.43;47.29;99932.16;4952021;29;20042;-27
2024/02/04 08:34:40;;;;;;;8.02;3.40;;;;;;;13.99;48.41;99934.09;4951043;29;20067;-27
2024/02/04 08:37:05;;;;;;;6.35;3.65;;;;;;;14.31;48.60;99935.81;4951989;29;20027;-27
2024/02/04 08:39:31;;;;;;;4.57;3.60;;;;;;;14.33;48.60;99931.84;4951526;29;20038;-28
2024/02/04 08:41:56;;;;;;;5.50;3.30;;;;;;;13.32;50.35;99912.44;4951831;29;20035;-28
2024/02/04 08:44:21;;;;;;;8.82;3.50;;;;;;;13.38;50.76;99942.81;4951678;28;20046;-28
2024/02/04 08:46:47;;;;;;;7.43;3.83;;;;;;;13.59;50.08;99939.78;4949704;29;20035;-29
2024/02/04 08:49:12;;;;;;;5.63;3.63;;;;;;;13.80;49.44;99938.59;4951135;29;20027;-28
2024/02/04 08:51:38;;;;;;;7.93;3.80;;;;;;;13.96;48.72;99926.50;4951560;29;20110;-27
2024/02/04 08:54:03;;;;;;;5.18;3.55;;;;;;;13.62;49.88;99928.66;4951545;29;20122;-27
2024/02/04 08:56:28;;;;;;;9.25;3.50;;;;;;;13.58;49.71;99930.13;4951522;29;20755;-28
2024/02/04 08:58:54;;;;;;;5.22;3.58;;;;;;;14.05;49.02;99927.00;4952019;29;20027;-27
2024/02/04 09:01:19;;;;;;;5.47;3.28;;;;;;;14.47;47.92;99935.22;4952122;29;20055;-29
2024/02/04 09:03:45;;;;;;;8.10;3.90;;;;;;;14.71;47.65;99943.38;4952014;29;20041;-27
2024/02/04 09:06:10;;;;;;;6.13;3.10;;;;;;;14.62;47.35;99943.72;4951742;29;20055;-28
2024/02/04 09:08:35;;;;;;;8.70;3.60;;;;;;;14.72;46.99;99937.00;4951458;29;20038;-28
2024/02/04 09:11:01;;;;;;;5.40;3.38;;;;;;;15.08;46.72;99944.13;4949578;29;20051;-29
2024/02/04 09:13:26;;;;;;;4.60;3.30;;;;;;;15.14;45.90;99935.19;4945255;29;20059;-28
2024/02/04 09:15:53;;;;;;;4.82;3.20;;;;;;;15.14;46.62;99932.50;4946208;29;20043;-28
2024/02/04 09:18:19;;;;;;;3.88;3.00;;;;;;;15.01;46.22;99919.28;4952179;29;20454;-28
2024/02/04 09:20:44;;;;;;;8.85;3.78;;;;;;;15.45;45.26;99925.22;4952040;29;20657;-27
2024/02/04 09:23:10;;;;;;;4.90;3.35;;;;;;;15.95;44.13;99923.97;4951952;29;20027;-28
2024/02/04 09:25:35;;;;;;;5.47;3.47;;;;;;;15.69;44.43;99925.22;4951717;29;20043;-28
2024/02/04 09:28:01;;;;;;;6.85;2.90;;;;;;;15.94;43.56;99917.00;4951592;29;20031;-27
2024/02/04 09:30:26;;;;;;;6.55;3.38;;;;;;;16.03;44.43;99910.22;4951557;29;20066;-28
2024/02/04 09:32:51;;;;;;;3.40;2.72;;;;;;;16.55;42.70;99904.03;4950912;29;20047;-28
2024/02/04 09:35:17;;;;;;;4.13;3.05;;;;;;;16.62;42.14;99904.72;4951784;29;20468;-28
2024/02/04 09:37:42;;;;;;;3.85;2.70;;;;;;;16.23;42.49;99880.28;4951727;29;20042;-27
2024/02/04 09:40:08;;;;;;;6.25;3.00;;;;;;;16.13;42.91;99893.53;4949381;29;20027;-29
2024/02/04 09:42:34;;;;;;;4.35;3.00;;;;;;;16.33;43.34;99879.69;4951192;29;20027;-28
2024/02/04 09:44:59;;;;;;;4.82;3.20;;;;;;;16.03;42.83;99872.66;4949491;29;20027;-28
2024/02/04 09:47:26;;;;;;;5.45;2.95;;;;;;;16.13;42.38;99877.41;4946830;29;20413;-28
2024/02/04 09:49:55;;;;;;;3.92;2.70;;;;;;;16.12;43.33;99875.75;4950443;29;20059;-27
2024/02/04 09:52:29;;;;;;;6.38;2.72;;;;;;;16.29;42.53;99873.97;4951974;29;20039;-28
2024/02/04 09:55:01;;;;;;;4.85;2.90;;;;;;;16.40;42.30;99867.75;4952352;28;20031;-30
2024/02/04 09:57:28;;;;;;;3.60;2.33;;;;;;;16.71;41.44;99875.56;4955215;29;20026;-29
2024/02/04 09:59:54;;;;;;;3.42;2.40;;;;;;;16.89;40.85;99867.34;4955206;29;20027;-27
2024/02/04 10:02:21;;;;;;;4.15;2.67;;;;;;;17.11;40.95;99874.69;4955524;29;20034;-27
2024/02/04 10:04:46;;;;;;;5.60;2.80;;;;;;;17.20;40.50;99870.56;4954814;29;20031;-30
2024/02/04 10:07:14;;;;;;;5.53;2.72;;;;;;;17.11;40.91;99864.75;4954766;29;20555;-27
2024/02/04 10:09:39;;;;;;;3.88;2.60;;;;;;;16.67;41.21;99869.06;4952783;29;20023;-27
2024/02/04 10:12:06;;;;;;;5.18;2.97;;;;;;;16.28;41.73;99847.34;4954527;29;20027;-27
2024/02/04 10:14:31;;;;;;;6.57;3.00;;;;;;;16.44;41.78;99856.53;4954804;29;20031;-27
2024/02/04 10:16:56;;;;;;;5.22;3.30;;;;;;;16.46;41.57;99857.13;4954134;29;20042;-27
2024/02/04 10:19:25;;;;;;;4.18;3.05;;;;;;;16.72;41.52;99869.16;4954639;29;20027;-27
2024/02/04 10:22:01;;;;;;;3.85;3.00;;;;;;;16.41;41.81;99855.97;4954672;29;20039;-28
2024/02/04 10:24:28;;;;;;;6.43;2.83;;;;;;;16.31;42.69;99860.31;4954298;29;20480;-28
2024/02/04 10:26:55;;;;;;;3.95;2.42;;;;;;;15.95;42.25;99854.19;4954441;29;20102;-28
2024/02/04 10:29:21;;;;;;;8.60;2.35;;;;;;;15.62;42.42;99840.31;4954392;29;20488;-27
2024/02/04 10:31:47;;;;;;;3.63;1.80;;;;;;;15.72;42.19;99845.09;4954453;29;20054;-27
2024/02/04 10:34:12;;;;;;;4.30;1.92;;;;;;;15.56;42.40;99851.19;4954061;29;20128;-29
2024/02/04 10:36:37;;;;;;;5.07;2.00;;;;;;;15.43;42.77;99842.31;4951396;29;20027;-26
2024/02/04 10:39:04;;;;;;;7.53;1.90;;;;;;;15.27;42.67;99852.91;4954260;29;20062;-28
2024/02/04 10:41:31;;;;;;;4.75;1.88;;;;;;;15.33;43.21;99842.09;4954384;29;20027;-27
2024/02/04 10:43:59;;;;;;;4.82;2.28;;;;;;;15.30;43.69;99844.41;4954717;29;20069;-26
2024/02/04 10:46:30;;;;;;;3.70;2.03;;;;;;;15.57;43.28;99844.75;4954365;29;20058;-27
2024/02/04 10:48:59;;;;;;;5.18;2.17;;;;;;;15.45;42.88;99853.63;4936590;29;20057;-28
2024/02/04 10:51:28;;;;;;;2.78;1.85;;;;;;;15.07;43.98;99835.28;4954251;29;20034;-28
2024/02/04 10:53:56;;;;;;;9.00;2.17;;;;;;;15.41;43.40;99839.03;4953434;29;20031;-27
2024/02/04 10:56:25;;;;;;;7.75;2.20;;;;;;;15.66;42.93;99851.41;4954415;29;20031;-27
2024/02/04 10:58:52;;;;;;;7.03;2.63;;;;;;;15.61;43.38;99838.72;4953687;29;20058;-27
2024/02/04 11:01:18;;;;;;;3.03;2.03;;;;;;;15.77;42.73;99855.19;4953848;29;20643;-27
2024/02/04 11:03:45;;;;;;;6.43;2.45;;;;;;;15.87;42.45;99851.88;4951820;29;20032;-27
2024/02/04 11:06:11;;;;;;;4.28;2.67;;;;;;;15.52;43.21;99850.84;4951210;28;20396;-27
2024/02/04 11:08:39;;;;;;;9.15;2.28;;;;;;;15.67;43.17;99876.34;4951637;29;20039;-28
2024/02/04 11:11:04;;;;;;;4.47;2.20;;;;;;;15.55;43.08;99861.06;4953179;29;20118;-28
2024/02/04 11:13:31;;;;;;;2.65;1.98;;;;;;;15.85;42.54;99868.22;4952649;29;20115;-28
2024/02/04 11:16:01;;;;;;;5.55;2.08;;;;;;;15.98;41.93;99875.22;4950937;29;20019;-27
2024/02/04 11:18:54;;;;;;;3.55;1.67;;;;;;;15.69;42.31;99875.09;4950746;29;20460;-26
2024/02/04 11:22:08;;;;;;;4.07;1.77;;;;;;;15.63;42.29;99866.13;4952319;29;20023;-27
2024/02/04 11:24:33;;;;;;;3.40;2.08;;;;;;;16.12;41.51;99868.53;4898881;29;20579;-28
2024/02/04 11:26:59;;;;;;;2.45;1.75;;;;;;;16.19;41.47;99863.03;4951891;29;20051;-28
2024/02/04 11:29:25;;;;;;;9.50;1.77;;;;;;;16.28;41.40;99856.25;4952862;29;20035;-27
2024/02/04 11:31:51;;;;;;;2.78;1.70;;;;;;;16.83;40.64;99851.34;4950846;29;20050;-31